Time;durP1;ratioP1;P1;durP2;ratioP2;P2;SDS_P1;SDS_P2;PMS_P1;PMS_P2;Temp;Humidity;BMP_temperature;BMP_pressure;BME280_temperature;BME280_humidity;BME280_pressure;Samples;Min_cycle;Max_cycle;Signal;HPM_P1;HPM_P2
2024/03/12 00:00:15;;;;;;;7.97;3.85;;;;;;;4.99;100.00;98349.22;5116040;28;20023;-77
2024/03/12 00:02:44;;;;;;;7.03;3.67;;;;;;;4.89;100.00;98349.44;5117592;28;20022;-78
2024/03/12 00:05:18;;;;;;;12.98;4.60;;;;;;;4.85;100.00;98350.84;5092319;28;20308;-78
2024/03/12 00:07:44;;;;;;;6.57;4.10;;;;;;;4.72;100.00;98359.47;5118325;28;20023;-78
2024/03/12 00:10:15;;;;;;;7.68;4.00;;;;;;;4.68;100.00;98357.31;5097137;28;20024;-77
2024/03/12 00:12:44;;;;;;;10.35;4.45;;;;;;;4.67;100.00;98366.38;5121901;28;20087;-77
2024/03/12 00:15:09;;;;;;;;;;;;;;;4.78;100.00;98376.69;5100058;28;20028;-77
2024/03/12 00:17:36;;;;;;;11.18;4.53;;;;;;;4.70;100.00;98353.44;5099934;28;19907;-78
2024/03/12 00:20:15;;;;;;;11.10;5.25;;;;;;;4.64;100.00;98366.69;5110393;28;20091;-78
2024/03/12 00:22:43;;;;;;;13.40;5.85;;;;;;;4.54;100.00;98370.44;5115955;28;20019;-77
2024/03/12 00:25:09;;;;;;;12.10;5.95;;;;;;;4.57;100.00;98382.66;5102194;28;20034;-77
2024/03/12 00:27:34;;;;;;;9.90;4.68;;;;;;;4.26;100.00;98353.16;5103530;28;20020;-77
2024/03/12 00:29:59;;;;;;;10.43;5.35;;;;;;;4.39;100.00;98389.09;5115935;28;20216;-77
2024/03/12 00:32:25;;;;;;;9.10;4.15;;;;;;;4.33;100.00;98373.72;5122700;28;20123;-77
2024/03/12 00:34:50;;;;;;;7.90;4.32;;;;;;;4.32;100.00;98382.78;5093307;28;20038;-77
2024/03/12 00:37:16;;;;;;;9.10;4.60;;;;;;;4.12;100.00;98360.09;5102691;28;20024;-77
2024/03/12 00:39:41;;;;;;;9.00;4.85;;;;;;;4.07;100.00;98365.13;5118911;28;20019;-77
2024/03/12 00:42:06;;;;;;;7.18;3.90;;;;;;;4.05;100.00;98376.00;5090907;28;20064;-77
2024/03/12 00:44:32;;;;;;;7.68;4.68;;;;;;;4.21;100.00;98393.84;5098135;28;20106;-77
2024/03/12 00:46:57;;;;;;;8.25;4.30;;;;;;;4.09;100.00;98381.88;5103033;28;20022;-77
2024/03/12 00:49:22;;;;;;;8.63;4.40;;;;;;;4.01;100.00;98390.75;5121837;28;20065;-77
2024/03/12 00:51:51;;;;;;;10.38;4.80;;;;;;;4.05;100.00;98400.09;5100265;28;20015;-77
2024/03/12 00:54:17;;;;;;;9.35;4.55;;;;;;;3.78;100.00;98376.44;5118164;28;20314;-77
2024/03/12 00:56:42;;;;;;;7.72;4.63;;;;;;;3.82;100.00;98399.97;5114198;28;20059;-78
2024/03/12 00:59:08;;;;;;;9.23;4.78;;;;;;;3.80;100.00;98391.31;5104580;28;20027;-77
2024/03/12 01:01:34;;;;;;;9.07;4.32;;;;;;;3.80;100.00;98391.31;5104342;28;20039;-76
2024/03/12 01:04:00;;;;;;;8.70;4.43;;;;;;;3.57;100.00;98367.09;5118027;28;20072;-78
2024/03/12 01:06:26;;;;;;;6.15;3.85;;;;;;;3.80;100.00;98417.19;5098015;28;20027;-77
2024/03/12 01:08:51;;;;;;;10.85;4.25;;;;;;;3.69;100.00;98416.56;5102048;28;20199;-77
2024/03/12 01:11:17;;;;;;;8.27;4.45;;;;;;;3.58;100.00;98402.69;5095789;28;20024;-77
2024/03/12 01:13:44;;;;;;;10.57;5.32;;;;;;;3.44;100.00;98385.50;5098444;28;20019;-77
2024/03/12 01:16:09;;;;;;;7.50;4.60;;;;;;;3.58;100.00;98418.75;5101858;28;20218;-77
2024/03/12 01:18:35;;;;;;;8.52;4.10;;;;;;;3.65;100.00;98427.78;5094430;28;20019;-77
2024/03/12 01:21:02;;;;;;;5.97;4.03;;;;;;;3.46;100.00;98410.25;5098081;28;20036;-78
2024/03/12 01:23:28;;;;;;;10.20;4.60;;;;;;;3.61;100.00;98435.28;5101165;28;20086;-77
2024/03/12 01:25:53;;;;;;;7.30;3.83;;;;;;;3.52;100.00;98425.59;5098272;28;20026;-77
2024/03/12 01:28:20;;;;;;;8.90;4.57;;;;;;;3.56;100.00;98426.91;5102431;28;20318;-77
2024/03/12 01:30:46;;;;;;;7.20;4.13;;;;;;;3.48;100.00;98418.91;5115207;28;20030;-77
2024/03/12 01:33:11;;;;;;;6.57;4.10;;;;;;;3.55;100.00;98424.44;5098594;28;20027;-76
2024/03/12 01:35:38;;;;;;;6.93;4.20;;;;;;;3.63;100.00;98430.59;5101125;28;20027;-77
2024/03/12 01:38:03;;;;;;;7.25;4.22;;;;;;;3.48;100.00;98432.28;5098061;28;20020;-77
2024/03/12 01:40:29;;;;;;;6.50;3.72;;;;;;;3.42;100.00;98435.63;5098263;28;20007;-77
2024/03/12 01:43:03;;;;;;;5.75;3.85;;;;;;;3.40;100.00;98445.66;5097384;28;20027;-77
2024/03/12 01:45:30;;;;;;;6.78;3.92;;;;;;;3.48;100.00;98441.16;5099302;28;20015;-77
2024/03/12 01:47:57;;;;;;;6.45;4.47;;;;;;;3.39;100.00;98420.75;5115735;28;20024;-77
2024/03/12 01:50:24;;;;;;;6.07;4.10;;;;;;;3.47;100.00;98444.00;5100675;28;20355;-77
2024/03/12 01:52:53;;;;;;;6.20;4.05;;;;;;;3.44;100.00;98452.34;5121982;28;20047;-76
2024/03/12 01:55:19;;;;;;;7.75;4.10;;;;;;;3.25;100.00;98429.44;5099879;28;20027;-77
2024/03/12 01:57:45;;;;;;;6.22;3.42;;;;;;;3.17;100.00;98465.03;5106660;28;20023;-76
2024/03/12 02:00:13;;;;;;;9.75;3.33;;;;;;;2.95;100.00;98426.38;5096960;28;20023;-77
2024/03/12 02:02:42;;;;;;;6.65;3.45;;;;;;;3.00;100.00;98448.09;5093599;28;20031;-78
2024/03/12 02:05:10;;;;;;;7.38;3.92;;;;;;;2.98;100.00;98451.94;5098359;28;20028;-76
2024/03/12 02:07:35;;;;;;;6.47;3.63;;;;;;;3.00;100.00;98458.78;5104767;28;20016;-78
2024/03/12 02:10:01;;;;;;;6.75;3.88;;;;;;;3.05;100.00;98479.69;5104393;28;20019;-76
2024/03/12 02:12:26;;;;;;;8.90;3.22;;;;;;;2.79;100.00;98435.19;5104749;28;20094;-77
2024/03/12 02:14:51;;;;;;;7.63;3.70;;;;;;;3.00;100.00;98471.31;5107155;28;20020;-76
2024/03/12 02:17:17;;;;;;;8.77;4.05;;;;;;;3.08;100.00;98474.84;5106900;28;20144;-77
2024/03/12 02:19:42;;;;;;;8.00;3.97;;;;;;;3.11;100.00;98465.66;5099968;28;20061;-77
2024/03/12 02:22:07;;;;;;;7.15;3.65;;;;;;;3.05;100.00;98467.16;5099733;28;20027;-78
2024/03/12 02:24:33;;;;;;;6.28;3.65;;;;;;;3.02;100.00;98461.31;5117841;28;20031;-78
2024/03/12 02:26:58;;;;;;;8.25;3.50;;;;;;;3.01;100.00;98470.31;5101805;28;20027;-78
2024/03/12 02:29:23;;;;;;;5.93;3.78;;;;;;;2.88;100.00;98467.28;5107443;28;20223;-78
2024/03/12 02:31:49;;;;;;;8.75;3.70;;;;;;;2.79;100.00;98467.25;5115467;28;20019;-78
2024/03/12 02:34:14;;;;;;;5.05;3.40;;;;;;;2.85;100.00;98473.78;5118391;28;20008;-78
2024/03/12 02:36:40;;;;;;;17.23;3.75;;;;;;;2.61;100.00;98455.84;5126668;28;20026;-77
2024/03/12 02:39:06;;;;;;;4.93;3.90;;;;;;;2.50;100.00;98456.13;5113339;28;20047;-78
2024/03/12 02:41:33;;;;;;;8.38;4.30;;;;;;;2.50;100.00;98462.31;5112006;28;20026;-77
2024/03/12 02:43:58;;;;;;;5.85;4.13;;;;;;;2.38;100.00;98469.78;5135794;28;20185;-77
2024/03/12 02:46:23;;;;;;;6.55;3.97;;;;;;;2.32;100.00;98470.41;5106866;28;20223;-77
2024/03/12 02:48:51;;;;;;;7.70;3.95;;;;;;;2.19;100.00;98443.31;5111373;28;20214;-76
2024/03/12 02:51:17;;;;;;;7.05;3.50;;;;;;;2.34;100.00;98480.94;5100871;28;20015;-77
2024/03/12 02:53:42;;;;;;;6.90;3.70;;;;;;;2.09;100.00;98454.09;5117825;28;20033;-77
2024/03/12 02:56:07;;;;;;;6.78;3.55;;;;;;;2.07;100.00;98464.09;5103472;28;20094;-77
2024/03/12 02:58:32;;;;;;;7.03;4.18;;;;;;;2.04;100.00;98488.41;5107648;28;20027;-77
2024/03/12 03:00:58;;;;;;;5.80;3.78;;;;;;;2.07;100.00;98497.94;5103141;28;20031;-78
2024/03/12 03:03:23;;;;;;;7.07;3.92;;;;;;;2.11;100.00;98493.97;5092641;28;20019;-76
2024/03/12 03:05:49;;;;;;;8.77;4.95;;;;;;;2.03;100.00;98493.91;5093486;28;20088;-77
2024/03/12 03:08:16;;;;;;;8.52;4.40;;;;;;;1.86;100.00;98468.94;5092759;28;20382;-77
2024/03/12 03:10:41;;;;;;;8.15;4.53;;;;;;;2.10;100.00;98492.31;5101774;28;20091;-78
2024/03/12 03:13:06;;;;;;;8.43;5.18;;;;;;;2.16;100.00;98486.31;5100570;28;20047;-78
2024/03/12 03:15:32;;;;;;;10.48;4.53;;;;;;;1.93;100.00;98476.16;5101750;28;20026;-77
2024/03/12 03:18:00;;;;;;;5.75;3.75;;;;;;;2.07;100.00;98506.81;5102998;28;20024;-78
2024/03/12 03:20:26;;;;;;;6.75;3.97;;;;;;;2.03;100.00;98485.91;5095794;28;20032;-78
2024/03/12 03:22:51;;;;;;;8.40;3.80;;;;;;;2.23;100.00;98506.06;5099920;28;20046;-77
2024/03/12 03:25:17;;;;;;;7.38;4.47;;;;;;;2.33;100.00;98495.25;5102620;28;20022;-78
2024/03/12 03:27:42;;;;;;;7.63;4.65;;;;;;;2.51;100.00;98497.84;5117838;28;20338;-79
2024/03/12 03:30:12;;;;;;;8.63;4.22;;;;;;;2.69;100.00;98513.81;5097345;28;20034;-78
2024/03/12 03:32:39;;;;;;;9.55;4.93;;;;;;;2.59;100.00;98498.75;5096405;28;20215;-79
2024/03/12 03:35:07;;;;;;;8.70;4.18;;;;;;;2.66;100.00;98504.28;5119507;27;20024;-78
2024/03/12 03:37:35;;;;;;;4.73;2.93;;;;;;;2.79;100.00;98501.97;5097703;28;20015;-78
2024/03/12 03:40:04;;;;;;;8.13;4.00;;;;;;;2.82;100.00;98503.50;5095232;28;20043;-78
2024/03/12 03:42:30;;;;;;;;;;;;;;;2.97;100.00;98517.09;5103042;28;20383;-77
2024/03/12 03:44:56;;;;;;;5.85;3.00;;;;;;;2.98;100.00;98518.75;5101434;28;19989;-78
2024/03/12 03:47:21;;;;;;;4.80;3.22;;;;;;;3.11;100.00;98524.47;5098121;28;20027;-78
2024/03/12 03:49:47;;;;;;;6.05;3.45;;;;;;;3.29;100.00;98527.03;5094530;28;20219;-77
2024/03/12 03:52:13;;;;;;;6.55;3.35;;;;;;;3.26;100.00;98505.97;5095557;28;20055;-78
2024/03/12 03:54:38;;;;;;;7.03;3.33;;;;;;;3.42;100.00;98516.69;5106421;28;20020;-78
2024/03/12 03:57:04;;;;;;;5.22;3.53;;;;;;;3.50;100.00;98526.56;5100399;28;20024;-78
2024/03/12 03:59:30;;;;;;;9.20;3.50;;;;;;;3.50;100.00;98532.75;5095654;28;20012;-78
2024/03/12 04:01:56;;;;;;;5.20;3.40;;;;;;;3.44;100.00;98514.69;5103543;28;20039;-79
2024/03/12 04:04:22;;;;;;;9.38;3.60;;;;;;;3.55;100.00;98537.59;5106197;28;20035;-78
2024/03/12 04:06:48;;;;;;;7.95;3.28;;;;;;;3.45;100.00;98526.22;5102472;28;20027;-79
2024/03/12 04:09:13;;;;;;;6.90;3.15;;;;;;;3.45;100.00;98520.88;5095639;28;20237;-78
2024/03/12 04:11:38;;;;;;;5.43;3.15;;;;;;;3.54;100.00;98530.59;5106222;28;20027;-78
2024/03/12 04:14:04;;;;;;;5.78;3.08;;;;;;;3.69;100.00;98545.00;5119132;28;20047;-78
2024/03/12 04:16:32;;;;;;;7.47;2.78;;;;;;;3.66;100.00;98515.03;5101632;28;20035;-78
2024/03/12 04:19:00;;;;;;;8.25;3.15;;;;;;;3.85;100.00;98528.09;5099660;28;20023;-78
2024/03/12 04:21:26;;;;;;;4.67;2.67;;;;;;;3.93;100.00;98513.88;5099134;28;20087;-77
2024/03/12 04:23:51;;;;;;;5.72;2.85;;;;;;;4.08;100.00;98532.75;5093990;28;20023;-77
2024/03/12 04:26:18;;;;;;;5.43;3.00;;;;;;;4.19;100.00;98535.09;5099741;28;20027;-77
2024/03/12 04:28:43;;;;;;;5.40;3.17;;;;;;;4.28;100.00;98555.50;5100872;28;20028;-78
2024/03/12 04:31:09;;;;;;;4.97;2.92;;;;;;;4.24;100.00;98537.25;5119640;28;20046;-78
2024/03/12 04:33:36;;;;;;;6.30;2.75;;;;;;;4.41;100.00;98540.75;5112724;28;20031;-78
2024/03/12 04:36:01;;;;;;;6.03;3.15;;;;;;;4.51;100.00;98555.66;5095064;28;20031;-78
2024/03/12 04:38:30;;;;;;;4.28;2.72;;;;;;;4.48;100.00;98545.28;5103542;28;20200;-77
2024/03/12 04:40:55;;;;;;;7.40;2.83;;;;;;;4.47;100.00;98542.75;5098923;28;20058;-78
2024/03/12 04:43:21;;;;;;;6.22;3.17;;;;;;;4.62;100.00;98567.84;5102728;28;20023;-78
2024/03/12 04:45:46;;;;;;;4.88;3.10;;;;;;;4.46;100.00;98539.25;5094070;28;20357;-77
2024/03/12 04:48:11;;;;;;;5.38;3.00;;;;;;;4.70;100.00;98575.03;5100381;28;20067;-79
2024/03/12 04:50:37;;;;;;;7.95;3.70;;;;;;;4.74;100.00;98565.63;5114285;28;20024;-85
2024/03/12 04:53:03;;;;;;;6.18;3.70;;;;;;;4.80;100.00;98564.94;5095642;28;20019;-83
2024/03/12 04:55:29;;;;;;;4.22;2.60;;;;;;;4.81;100.00;98566.59;5099867;28;20016;-82
2024/03/12 04:57:54;;;;;;;5.38;2.75;;;;;;;4.85;100.00;98573.31;5098514;28;20020;-82
2024/03/12 05:00:21;;;;;;;5.35;3.10;;;;;;;4.91;100.00;98582.50;5100203;28;20091;-82
2024/03/12 05:02:46;;;;;;;10.10;4.43;;;;;;;4.66;100.00;98566.47;5098855;28;20050;-81
2024/03/12 05:05:23;;;;;;;4.97;3.17;;;;;;;4.74;100.00;98589.72;5115218;28;20219;-82
2024/03/12 05:07:49;;;;;;;5.72;3.17;;;;;;;4.77;100.00;98608.19;5089179;28;20031;-82
2024/03/12 05:10:15;;;;;;;6.95;3.45;;;;;;;4.62;100.00;98600.00;5098496;28;20043;-82
2024/03/12 05:12:41;;;;;;;6.07;4.00;;;;;;;4.66;100.00;98600.47;5089622;28;20019;-82
2024/03/12 05:15:09;;;;;;;10.88;5.65;;;;;;;4.60;100.00;98608.19;5093610;28;20095;-81
2024/03/12 05:17:41;;;;;;;10.40;5.43;;;;;;;4.73;100.00;98623.75;5119750;28;20090;-81
2024/03/12 05:20:12;;;;;;;7.38;5.05;;;;;;;4.61;100.00;98615.25;5101649;28;20011;-80
2024/03/12 05:22:38;;;;;;;8.50;4.97;;;;;;;4.61;100.00;98630.44;5104450;28;20024;-81
2024/03/12 05:25:03;;;;;;;7.40;4.90;;;;;;;4.45;100.00;98614.41;5096608;28;20094;-83
2024/03/12 05:27:38;;;;;;;6.63;3.80;;;;;;;4.58;100.00;98631.66;5105825;28;20044;-82
2024/03/12 05:30:10;;;;;;;8.38;4.50;;;;;;;4.53;100.00;98609.91;5098481;28;20024;-82
2024/03/12 05:32:45;;;;;;;11.98;4.10;;;;;;;4.57;100.00;98607.69;5097907;28;20016;-84
2024/03/12 05:35:17;;;;;;;8.82;3.95;;;;;;;4.64;100.00;98615.88;5103654;28;20030;-85
2024/03/12 05:38:01;;;;;;;5.85;3.58;;;;;;;4.79;100.00;98624.91;5106065;28;20042;-84
2024/03/12 05:40:42;;;;;;;8.40;4.07;;;;;;;4.72;100.00;98615.88;5099533;27;20230;-80
2024/03/12 05:48:39;;;;;;;5.57;3.15;;;;;;;4.51;100.00;98635.19;5120510;27;20354;-78
2024/03/12 05:51:05;;;;;;;6.88;3.70;;;;;;;4.52;100.00;98637.66;5104034;28;20103;-79
2024/03/12 05:53:31;;;;;;;5.28;3.20;;;;;;;4.50;100.00;98626.28;5100632;28;20090;-80
2024/03/12 05:55:56;;;;;;;6.43;3.58;;;;;;;4.70;100.00;98650.06;5106659;28;20020;-82
2024/03/12 05:58:21;;;;;;;6.25;3.78;;;;;;;4.68;100.00;98644.84;5102947;28;20020;-79
2024/03/12 06:00:48;;;;;;;5.05;3.00;;;;;;;4.95;100.00;98658.88;5103332;28;20068;-78
2024/03/12 06:03:14;;;;;;;8.00;3.95;;;;;;;4.80;100.00;98623.91;5100001;28;20046;-81
2024/03/12 06:05:41;;;;;;;6.00;3.55;;;;;;;4.90;100.00;98619.19;5117485;28;20027;-80
2024/03/12 06:08:06;;;;;;;6.70;3.70;;;;;;;4.95;100.00;98615.97;5098843;28;20047;-79
2024/03/12 06:10:32;;;;;;;6.32;3.65;;;;;;;5.18;100.00;98645.56;5120765;27;20035;-79
2024/03/12 06:12:57;;;;;;;5.63;3.80;;;;;;;5.21;100.00;98647.91;5104222;28;20024;-78
2024/03/12 06:15:22;;;;;;;6.05;3.80;;;;;;;5.27;100.00;98647.25;5119106;28;20053;-78
2024/03/12 06:17:47;;;;;;;5.78;3.35;;;;;;;5.44;100.00;98650.69;5122456;28;20020;-78
2024/03/12 06:20:13;;;;;;;5.90;3.35;;;;;;;5.30;100.00;98629.97;5102800;28;20023;-80
2024/03/12 06:22:39;;;;;;;6.55;3.42;;;;;;;5.39;100.00;98642.31;5104270;28;20059;-83
2024/03/12 06:25:05;;;;;;;5.28;3.35;;;;;;;5.49;100.00;98659.03;5117012;28;20047;-83
2024/03/12 06:27:32;;;;;;;6.72;3.53;;;;;;;5.41;100.00;98621.53;5108789;28;20215;-79
2024/03/12 06:29:57;;;;;;;6.38;3.33;;;;;;;5.47;100.00;98627.00;5097705;28;20016;-78
2024/03/12 06:32:25;;;;;;;6.45;3.45;;;;;;;5.68;100.00;98657.78;5126688;28;20038;-77
2024/03/12 06:34:50;;;;;;;6.40;3.72;;;;;;;5.66;100.00;98651.78;5104945;28;20015;-79
2024/03/12 06:37:15;;;;;;;6.88;3.58;;;;;;;5.78;100.00;98669.13;5108527;28;20024;-79
2024/03/12 06:39:41;;;;;;;5.53;3.55;;;;;;;5.83;100.00;98666.75;5112577;28;20371;-80
2024/03/12 06:42:08;;;;;;;5.22;3.63;;;;;;;5.96;100.00;98684.19;5111163;28;20095;-79
2024/03/12 06:44:40;;;;;;;5.70;3.50;;;;;;;5.97;100.00;98675.94;5102677;28;20016;-77
2024/03/12 06:47:12;;;;;;;6.45;3.20;;;;;;;5.99;100.00;98681.13;5102541;28;20039;-79
2024/03/12 06:49:38;;;;;;;4.60;3.05;;;;;;;5.93;100.00;98671.91;5107512;28;20016;-78
2024/03/12 06:52:06;;;;;;;10.07;3.70;;;;;;;5.98;100.00;98676.78;5105590;28;20034;-77
2024/03/12 06:54:36;;;;;;;5.40;3.47;;;;;;;6.04;100.00;98682.28;5101377;28;20435;-80
2024/03/12 06:57:04;;;;;;;6.57;3.42;;;;;;;6.14;100.00;98688.25;5097463;28;20030;-81
2024/03/12 06:59:31;;;;;;;4.57;3.25;;;;;;;6.09;100.00;98677.19;5116933;28;20019;-79
2024/03/12 07:01:57;;;;;;;7.40;3.45;;;;;;;6.32;100.00;98695.19;5117640;28;20032;-78
2024/03/12 07:04:23;;;;;;;4.85;3.03;;;;;;;6.38;100.00;98690.97;5106195;28;20583;-77
2024/03/12 07:06:50;;;;;;;4.30;2.70;;;;;;;6.28;100.00;98659.78;5119395;27;20016;-79
2024/03/12 07:09:25;;;;;;;6.03;3.53;;;;;;;6.35;100.00;98665.28;5100036;28;20023;-79
2024/03/12 07:11:52;;;;;;;6.45;3.42;;;;;;;6.40;100.00;98648.63;5113327;28;20356;-79
2024/03/12 07:14:23;;;;;;;3.85;2.72;;;;;;;6.52;100.00;98657.91;5097718;28;20072;-78
2024/03/12 07:16:51;;;;;;;6.55;3.22;;;;;;;6.69;100.00;98686.34;5121226;28;20015;-77
2024/03/12 07:19:17;;;;;;;4.78;2.78;;;;;;;6.76;100.00;98684.59;5102415;28;20028;-77
2024/03/12 07:21:42;;;;;;;3.58;2.80;;;;;;;6.77;100.00;98691.63;5098467;28;20027;-79
2024/03/12 07:24:11;;;;;;;7.72;2.90;;;;;;;6.70;100.00;98682.63;5101137;28;20031;-79
2024/03/12 07:26:37;;;;;;;7.13;3.42;;;;;;;6.69;100.00;98698.94;5099246;28;20924;-79
2024/03/12 07:29:06;;;;;;;4.90;3.38;;;;;;;6.66;100.00;98700.13;5098775;28;20098;-78
2024/03/12 07:31:33;;;;;;;;;;;;;;;6.69;100.00;98705.16;5121709;28;20019;-77
2024/03/12 07:33:59;;;;;;;5.78;3.20;;;;;;;6.66;100.00;98702.00;5100591;28;19908;-80
2024/03/12 07:36:24;;;;;;;6.03;3.30;;;;;;;6.54;100.00;98686.28;5097432;28;20158;-80
2024/03/12 07:38:49;;;;;;;5.30;3.47;;;;;;;6.69;100.00;98697.09;5118237;28;20024;-83
2024/03/12 07:41:15;;;;;;;7.45;3.00;;;;;;;6.49;100.00;98669.03;5105411;28;20102;-79
2024/03/12 07:43:40;;;;;;;5.85;3.40;;;;;;;6.70;100.00;98674.53;5096896;28;20318;-78
2024/03/12 07:46:07;;;;;;;5.32;3.05;;;;;;;6.83;100.00;98691.91;5117330;28;20032;-80
2024/03/12 07:48:32;;;;;;;5.10;3.00;;;;;;;6.68;100.00;98673.06;5092183;28;20051;-80
2024/03/12 07:50:58;;;;;;;6.72;3.28;;;;;;;6.78;100.00;98684.41;5102029;28;20037;-76
2024/03/12 07:53:28;;;;;;;6.43;2.53;;;;;;;6.83;100.00;98694.63;5099827;28;20035;-78
2024/03/12 07:55:56;;;;;;;5.68;2.80;;;;;;;6.72;100.00;98674.38;5101467;28;20046;-77
2024/03/12 07:58:22;;;;;;;6.40;3.10;;;;;;;6.91;100.00;98726.81;5119862;28;20023;-77
2024/03/12 08:00:48;;;;;;;3.80;2.28;;;;;;;6.77;100.00;98694.31;5120105;28;20045;-76
2024/03/12 08:03:13;;;;;;;4.43;2.72;;;;;;;6.90;100.00;98719.78;5105611;28;20027;-78
2024/03/12 08:05:39;;;;;;;7.43;3.20;;;;;;;6.63;100.00;98681.69;5100783;28;20024;-77
2024/03/12 08:08:07;;;;;;;5.20;3.08;;;;;;;6.90;100.00;98738.59;5099239;28;20054;-79
2024/03/12 08:10:33;;;;;;;7.65;3.75;;;;;;;6.86;100.00;98731.88;5097101;28;20105;-82
2024/03/12 08:12:58;;;;;;;5.28;3.47;;;;;;;6.87;100.00;98741.66;5109201;28;20015;-85
2024/03/12 08:15:24;;;;;;;7.38;4.03;;;;;;;6.78;100.00;98738.16;5104057;28;20084;-79
2024/03/12 08:17:49;;;;;;;9.15;4.25;;;;;;;6.86;100.00;98748.84;5096615;28;20034;-79
2024/03/12 08:20:17;;;;;;;7.85;3.97;;;;;;;6.83;100.00;98745.69;5101107;28;20022;-79
2024/03/12 08:22:42;;;;;;;8.25;3.67;;;;;;;6.85;100.00;98749.06;5093894;28;20028;-76
2024/03/12 08:25:10;;;;;;;7.55;4.32;;;;;;;6.93;100.00;98757.06;5100769;28;20023;-77
2024/03/12 08:27:36;;;;;;;7.72;3.67;;;;;;;6.92;100.00;98756.22;5102260;28;20263;-76
2024/03/12 08:30:02;;;;;;;5.38;3.70;;;;;;;7.05;100.00;98761.00;5103515;28;20048;-78
2024/03/12 08:32:29;;;;;;;8.30;4.30;;;;;;;7.03;100.00;98752.25;5094524;28;20031;-80
2024/03/12 08:34:54;;;;;;;6.38;3.80;;;;;;;6.68;100.00;98706.19;5094221;28;20094;-80
2024/03/12 08:37:22;;;;;;;8.68;4.00;;;;;;;6.98;100.00;98760.88;5097848;28;20034;-79
2024/03/12 08:39:49;;;;;;;8.55;3.45;;;;;;;6.90;100.00;98749.34;5099049;28;20157;-80
2024/03/12 08:42:15;;;;;;;8.95;3.97;;;;;;;6.88;100.00;98751.38;5096824;28;20081;-80
2024/03/12 08:44:40;;;;;;;11.23;3.72;;;;;;;6.77;100.00;98741.88;5104888;28;20023;-78
2024/03/12 08:47:07;;;;;;;5.85;3.47;;;;;;;6.72;100.00;98739.72;5092366;28;20096;-78
2024/03/12 08:49:33;;;;;;;10.25;4.43;;;;;;;6.83;100.00;98761.84;5098582;28;20024;-79
2024/03/12 08:51:58;;;;;;;7.13;3.72;;;;;;;6.88;100.00;98749.53;5103522;28;20029;-80
2024/03/12 08:54:24;;;;;;;8.90;3.67;;;;;;;7.05;100.00;98761.00;5096346;28;20028;-79
2024/03/12 08:56:49;;;;;;;9.80;4.00;;;;;;;6.99;100.00;98761.69;5100192;28;20123;-80
2024/03/12 08:59:15;;;;;;;6.05;4.22;;;;;;;6.95;100.00;98755.84;5102741;28;20056;-80
2024/03/12 09:01:41;;;;;;;10.57;4.30;;;;;;;6.88;100.00;98746.00;5097303;28;20282;-80
2024/03/12 09:04:07;;;;;;;6.65;4.30;;;;;;;7.11;100.00;98772.88;5101111;28;20038;-77
2024/03/12 09:06:33;;;;;;;8.55;4.20;;;;;;;7.20;100.00;98774.44;5090901;28;20601;-77
2024/03/12 09:08:58;;;;;;;8.43;3.88;;;;;;;6.98;100.00;98728.59;5096939;28;20235;-75
2024/03/12 09:11:25;;;;;;;7.03;4.03;;;;;;;7.26;100.00;98771.06;5104292;28;20044;-79
2024/03/12 09:13:50;;;;;;;7.70;4.28;;;;;;;7.35;100.00;98787.94;5095035;28;20027;-79
2024/03/12 09:16:16;;;;;;;11.13;4.32;;;;;;;7.26;100.00;98760.28;5099165;28;20030;-80
2024/03/12 09:18:44;;;;;;;7.30;4.32;;;;;;;7.45;100.00;98789.34;5093853;28;20023;-79
2024/03/12 09:21:13;;;;;;;9.45;4.00;;;;;;;7.49;100.00;98783.59;5101693;28;20036;-79
2024/03/12 09:23:39;;;;;;;13.23;3.97;;;;;;;7.58;100.00;98769.88;5104611;28;20039;-79
2024/03/12 09:26:06;;;;;;;11.85;4.30;;;;;;;7.65;100.00;98762.75;5099503;28;20023;-79
2024/03/12 09:28:32;;;;;;;8.38;4.30;;;;;;;7.81;100.00;98768.97;5097316;28;20027;-79
2024/03/12 09:30:58;;;;;;;6.15;3.00;;;;;;;7.97;100.00;98774.16;5096243;28;20227;-75
2024/03/12 09:33:26;;;;;;;5.68;3.03;;;;;;;8.12;100.00;98779.50;5100389;28;20027;-75
2024/03/12 09:35:53;;;;;;;5.97;3.88;;;;;;;8.03;100.00;98770.69;5100779;28;20030;-77
2024/03/12 09:38:19;;;;;;;7.82;2.95;;;;;;;8.20;100.00;98774.03;5097617;28;20347;-78
2024/03/12 09:40:47;;;;;;;4.65;3.28;;;;;;;8.24;100.00;98777.16;5097258;28;20030;-76
2024/03/12 09:43:16;;;;;;;4.15;2.78;;;;;;;8.01;100.00;98748.47;5093368;28;20031;-78
2024/03/12 09:45:42;;;;;;;4.03;2.88;;;;;;;7.94;100.00;98779.06;5117323;28;20030;-76
2024/03/12 09:48:08;;;;;;;5.65;2.75;;;;;;;8.13;100.00;98771.22;5099918;28;20024;-77
2024/03/12 09:50:35;;;;;;;6.78;3.10;;;;;;;8.19;100.00;98782.28;5106309;28;20055;-79
2024/03/12 09:53:01;;;;;;;5.43;2.90;;;;;;;8.26;100.00;98784.03;5101020;28;20350;-78
2024/03/12 09:55:28;;;;;;;5.70;2.88;;;;;;;8.15;100.00;98778.28;5097110;28;20031;-75
2024/03/12 09:57:54;;;;;;;9.25;2.95;;;;;;;8.20;100.00;98778.56;5099255;28;20020;-75
2024/03/12 10:00:24;;;;;;;7.18;3.10;;;;;;;8.46;100.00;98787.00;5102220;28;20020;-76
2024/03/12 10:02:50;;;;;;;7.90;3.38;;;;;;;8.62;100.00;98794.03;5099978;28;20090;-77
2024/03/12 10:05:23;;;;;;;5.25;3.10;;;;;;;8.45;100.00;98752.97;5101208;28;20024;-75
2024/03/12 10:08:08;;;;;;;7.13;2.97;;;;;;;8.89;100.00;98794.28;5093233;28;20048;-76
2024/03/12 10:10:38;;;;;;;6.32;2.97;;;;;;;9.12;100.00;98786.84;5099913;28;20072;-75
2024/03/12 10:13:05;;;;;;;6.03;2.83;;;;;;;9.42;100.00;98771.28;5097870;28;20214;-76
2024/03/12 10:15:31;;;;;;;3.95;2.60;;;;;;;9.87;100.00;98787.97;5098530;28;20055;-76
2024/03/12 10:17:59;;;;;;;5.43;2.72;;;;;;;10.05;100.00;98741.50;5101684;28;20015;-76
2024/03/12 10:20:24;;;;;;;4.65;2.60;;;;;;;10.79;100.00;98787.75;5185527;22;20049;-56
2024/03/12 10:23:15;;;;;;;4.15;2.28;;;;;;;10.72;100.00;98793.97;5054244;28;20548;-56
2024/03/12 10:25:48;;;;;;;5.72;2.80;;;;;;;11.20;100.00;98784.88;5049358;28;20391;-56
2024/03/12 10:28:15;;;;;;;8.50;2.60;;;;;;;11.48;100.00;98789.25;5054479;28;20139;-62
2024/03/12 10:30:42;;;;;;;7.95;2.40;;;;;;;11.72;100.00;98783.19;5056993;28;20223;-56
2024/03/12 10:33:13;;;;;;;7.53;2.65;;;;;;;12.28;100.00;98785.31;5053336;28;20432;-56
2024/03/12 10:35:44;;;;;;;5.00;2.50;;;;;;;12.59;100.00;98789.16;5060496;28;20036;-56
2024/03/12 10:38:27;;;;;;;6.82;2.95;;;;;;;12.22;100.00;98788.09;5048701;28;20040;-56
2024/03/12 10:40:57;;;;;;;7.25;3.15;;;;;;;12.52;100.00;98785.63;5051015;28;20021;-62
2024/03/12 10:43:24;;;;;;;;;;;;;;;12.35;100.00;98792.63;5056850;28;20025;-56
2024/03/12 10:45:50;;;;;;;6.32;2.95;;;;;;;12.02;100.00;98797.09;5054058;28;19925;-62
2024/03/12 10:48:18;;;;;;;7.47;3.40;;;;;;;11.62;100.00;98796.31;5051117;28;20445;-56
2024/03/12 10:50:44;;;;;;;6.50;3.45;;;;;;;11.58;100.00;98795.06;5047750;28;20372;-57
2024/03/12 10:53:11;;;;;;;7.60;3.50;;;;;;;11.23;100.00;98787.16;5052889;28;20037;-56
2024/03/12 10:55:38;;;;;;;10.02;3.90;;;;;;;10.93;100.00;98789.44;5054919;28;20051;-60
2024/03/12 10:58:08;;;;;;;6.20;3.60;;;;;;;10.96;100.00;98789.03;5063793;28;20033;-56
2024/03/12 11:00:35;;;;;;;7.80;4.05;;;;;;;10.64;100.00;98793.34;5058852;28;20106;-56
2024/03/12 11:03:04;;;;;;;7.68;4.20;;;;;;;10.46;100.00;98800.16;5053631;28;20469;-63
2024/03/12 11:05:30;;;;;;;6.60;3.93;;;;;;;10.51;100.00;98794.13;5057168;28;20040;-62
2024/03/12 11:07:59;;;;;;;8.50;3.83;;;;;;;10.48;100.00;98794.53;5057635;28;20392;-62
2024/03/12 11:10:28;;;;;;;11.43;4.55;;;;;;;10.62;100.00;98803.53;5052639;28;20032;-57
2024/03/12 11:12:59;;;;;;;11.20;4.37;;;;;;;10.31;100.00;98797.56;5053369;28;20039;-56
2024/03/12 11:15:25;;;;;;;8.52;4.00;;;;;;;10.40;100.00;98797.41;5061488;28;20862;-56
2024/03/12 11:17:51;;;;;;;8.68;4.47;;;;;;;10.73;100.00;98792.09;5053490;28;20033;-56
2024/03/12 11:20:22;;;;;;;9.32;4.50;;;;;;;10.82;100.00;98796.31;5055839;28;20040;-57
2024/03/12 11:22:49;;;;;;;9.38;4.35;;;;;;;10.93;100.00;98797.56;5058772;28;20367;-56
2024/03/12 11:25:27;;;;;;;7.15;4.00;;;;;;;10.55;100.00;98802.66;5054401;28;20087;-56
2024/03/12 11:28:20;;;;;;;8.15;4.63;;;;;;;10.27;100.00;98801.75;5069633;28;20028;-59
2024/03/12 11:30:47;;;;;;;8.55;4.82;;;;;;;9.97;100.00;98794.91;5048620;28;20502;-57
2024/03/12 11:33:41;;;;;;;10.95;6.03;;;;;;;10.05;100.00;98808.25;5059037;28;20047;-56
2024/03/12 11:36:09;;;;;;;14.02;5.35;;;;;;;10.02;100.00;98814.06;5050999;28;20021;-56